Moss Bluff, Louisiana
Current Conditions -  °F | °C
As of 5:50 PM on Thursday 18 Dec 2014 (Local Time) from KCWF Reporting Station
Overcast Overcast  
Wind Chill: 57°   Ceiling: 1000
Heat Index: 57°   Visibility: 10mi
Dew Point: 54°   Wind: 6mph
Humidity: 88%   Direction: 40°NE
Pressure: 30.08"   Gusts: NA
Location:  30.3465°N, 93.2013°W
Report Text: KCWF 182350Z 04005KT 10SM OVC010 14/12 A3008
Loading
Personal Weather Stations






























Interactive Weather Map New forecast layout! Learn more

10-Day Weather Forecast

Advertisements
Track Severe Weather on mobile